SWA943 KMCO-MDPC
Flight info
| Callsign | SWA943 |
|---|---|
| Flight time | N/A |
| Altitude | 37000 |
| Route | DDANY3 BORRD DCT JOLTS BR1L BENIE DCT CHASO Y306 HAGIT DCT POKEG DCT KOBET DCT BEREL BEREL1W |
| Aircraft | B738/M-SDE2E3FGHIRWXY/LB1 |
Departure
| Time | 2026-05-03 20:50 |
|---|---|
| Airport | Orlando International Airport (KMCO) |
Arrival
| Time | N/A |
|---|---|
| Airport | Punta Cana International Airport (MDPC) |
| Time | Latitude | Longitude | Altitude | Speed | Heading |
|---|---|---|---|---|---|
| 2026-05-03 20:15 | 28.43474 | -81.30011 | 128 ft | 0 kts | 269° |
| 2026-05-03 20:36 | 28.43474 | -81.30007 | 100 ft | 3 kts | 262° |
| 2026-05-03 20:36 | 28.43480 | -81.29987 | 98 ft | 4 kts | 250° |
| 2026-05-03 20:36 | 28.43490 | -81.29958 | 99 ft | 4 kts | 250° |
| 2026-05-03 20:36 | 28.43499 | -81.29929 | 98 ft | 4 kts | 250° |
| 2026-05-03 20:37 | 28.43507 | -81.29903 | 99 ft | 3 kts | 250° |
| 2026-05-03 20:37 | 28.43520 | -81.29885 | 98 ft | 4 kts | 186° |
| 2026-05-03 20:37 | 28.43547 | -81.29886 | 100 ft | 4 kts | 173° |
| 2026-05-03 20:37 | 28.43561 | -81.29887 | 98 ft | 1 kts | 178° |
| 2026-05-03 20:38 | 28.43562 | -81.29888 | 99 ft | 0 kts | 178° |
| 2026-05-03 20:41 | 28.43540 | -81.29887 | 100 ft | 4 kts | 178° |
| 2026-05-03 20:41 | 28.43513 | -81.29886 | 100 ft | 4 kts | 178° |
| 2026-05-03 20:42 | 28.43486 | -81.29885 | 100 ft | 4 kts | 179° |
| 2026-05-03 20:42 | 28.43460 | -81.29884 | 100 ft | 4 kts | 173° |
| 2026-05-03 20:42 | 28.43443 | -81.29864 | 101 ft | 4 kts | 111° |
| 2026-05-03 20:42 | 28.43440 | -81.29836 | 102 ft | 4 kts | 95° |
| 2026-05-03 20:43 | 28.43427 | -81.29813 | 102 ft | 3 kts | 140° |
| 2026-05-03 20:43 | 28.43401 | -81.29805 | 102 ft | 5 kts | 174° |
| 2026-05-03 20:43 | 28.43356 | -81.29803 | 102 ft | 9 kts | 180° |
| 2026-05-03 20:43 | 28.43267 | -81.29804 | 102 ft | 16 kts | 180° |
| 2026-05-03 20:44 | 28.43135 | -81.29803 | 102 ft | 22 kts | 178° |
| 2026-05-03 20:44 | 28.42978 | -81.29798 | 102 ft | 22 kts | 179° |
| 2026-05-03 20:44 | 28.42828 | -81.29798 | 102 ft | 22 kts | 179° |
| 2026-05-03 20:44 | 28.42679 | -81.29796 | 102 ft | 21 kts | 179° |
| 2026-05-03 20:45 | 28.42535 | -81.29795 | 102 ft | 20 kts | 179° |
| 2026-05-03 20:45 | 28.42395 | -81.29794 | 101 ft | 20 kts | 180° |
| 2026-05-03 20:45 | 28.42260 | -81.29795 | 101 ft | 19 kts | 180° |
| 2026-05-03 20:45 | 28.42129 | -81.29791 | 101 ft | 19 kts | 179° |
| 2026-05-03 20:46 | 28.42045 | -81.29790 | 101 ft | 18 kts | 179° |
| 2026-05-03 20:46 | 28.41921 | -81.29789 | 101 ft | 17 kts | 179° |
| 2026-05-03 20:46 | 28.41801 | -81.29788 | 101 ft | 17 kts | 179° |
| 2026-05-03 20:46 | 28.41686 | -81.29786 | 101 ft | 16 kts | 179° |
| 2026-05-03 20:47 | 28.41576 | -81.29785 | 101 ft | 16 kts | 180° |
| 2026-05-03 20:47 | 28.41469 | -81.29785 | 101 ft | 15 kts | 180° |
| 2026-05-03 20:47 | 28.41367 | -81.29784 | 100 ft | 14 kts | 179° |
| 2026-05-03 20:47 | 28.41270 | -81.29783 | 100 ft | 14 kts | 179° |
| 2026-05-03 20:48 | 28.41177 | -81.29781 | 100 ft | 13 kts | 179° |
| 2026-05-03 20:48 | 28.41087 | -81.29779 | 100 ft | 13 kts | 179° |
| 2026-05-03 20:48 | 28.40999 | -81.29780 | 99 ft | 12 kts | 180° |
| 2026-05-03 20:48 | 28.40914 | -81.29778 | 99 ft | 12 kts | 180° |
| 2026-05-03 20:49 | 28.40834 | -81.29765 | 99 ft | 12 kts | 141° |
| 2026-05-03 20:49 | 28.40820 | -81.29677 | 98 ft | 12 kts | 87° |
| 2026-05-03 20:49 | 28.40824 | -81.29582 | 96 ft | 12 kts | 80° |
| 2026-05-03 20:49 | 28.40896 | -81.29558 | 96 ft | 12 kts | 358° |
| 2026-05-03 20:50 | 28.40981 | -81.29561 | 97 ft | 17 kts | 358° |
| 2026-05-03 20:50 | 28.41400 | -81.29564 | 103 ft | 103 kts | 359° |
| 2026-05-03 20:50 | 28.42367 | -81.29568 | 198 ft | 167 kts | 2° |
| 2026-05-03 20:50 | 28.43557 | -81.29569 | 1146 ft | 165 kts | 1° |
| 2026-05-03 20:51 | 28.44701 | -81.29488 | 2063 ft | 174 kts | 23° |
| 2026-05-03 20:51 | 28.45740 | -81.28681 | 2344 ft | 193 kts | 45° |
| 2026-05-03 20:51 | 28.46587 | -81.27407 | 2514 ft | 214 kts | 66° |
| 2026-05-03 20:51 | 28.46849 | -81.25647 | 2725 ft | 240 kts | 83° |
| 2026-05-03 20:52 | 28.46977 | -81.23701 | 3287 ft | 249 kts | 84° |
| 2026-05-03 20:52 | 28.47118 | -81.21699 | 3980 ft | 257 kts | 84° |
| 2026-05-03 20:52 | 28.47268 | -81.19644 | 4740 ft | 261 kts | 85° |
| 2026-05-03 20:52 | 28.47423 | -81.17556 | 5348 ft | 271 kts | 84° |
| 2026-05-03 20:53 | 28.47602 | -81.15377 | 5821 ft | 283 kts | 84° |
| 2026-05-03 20:53 | 28.47792 | -81.13122 | 6407 ft | 290 kts | 85° |
| 2026-05-03 20:53 | 28.47988 | -81.10814 | 7050 ft | 294 kts | 85° |
| 2026-05-03 20:53 | 28.48185 | -81.08474 | 7718 ft | 302 kts | 85° |
| 2026-05-03 20:54 | 28.48042 | -81.06089 | 8332 ft | 305 kts | 112° |
| 2026-05-03 20:54 | 28.45261 | -81.02645 | 9768 ft | 302 kts | 147° |
| 2026-05-03 20:54 | 28.43598 | -81.01141 | 10341 ft | 312 kts | 147° |
| 2026-05-03 20:55 | 28.41848 | -80.99528 | 10503 ft | 335 kts | 146° |
| 2026-05-03 20:55 | 28.40014 | -80.97802 | 10937 ft | 347 kts | 145° |
| 2026-05-03 20:55 | 28.38155 | -80.96023 | 11632 ft | 350 kts | 145° |
| 2026-05-03 20:55 | 28.36296 | -80.94229 | 12371 ft | 352 kts | 145° |
| 2026-05-03 20:56 | 28.34424 | -80.92422 | 13111 ft | 354 kts | 145° |
| 2026-05-03 20:56 | 28.32562 | -80.90627 | 13841 ft | 358 kts | 145° |
| 2026-05-03 20:56 | 28.30627 | -80.88765 | 14509 ft | 363 kts | 146° |
| 2026-05-03 20:56 | 28.28805 | -80.86784 | 15111 ft | 375 kts | 136° |
| 2026-05-03 20:57 | 28.27284 | -80.84325 | 15744 ft | 387 kts | 124° |
| 2026-05-03 20:57 | 28.26150 | -80.81514 | 16367 ft | 396 kts | 116° |
| 2026-05-03 20:57 | 28.25147 | -80.78572 | 16969 ft | 403 kts | 115° |
| 2026-05-03 20:57 | 28.24128 | -80.75591 | 17560 ft | 409 kts | 116° |
| 2026-05-03 20:58 | 28.23066 | -80.72578 | 18147 ft | 414 kts | 116° |
| 2026-05-03 20:58 | 28.21857 | -80.69605 | 18680 ft | 414 kts | 126° |
| 2026-05-03 20:58 | 28.20168 | -80.67001 | 19248 ft | 407 kts | 139° |
| 2026-05-03 20:58 | 28.18123 | -80.64831 | 19848 ft | 400 kts | 151° |
| 2026-05-03 20:59 | 28.15842 | -80.63051 | 20445 ft | 398 kts | 154° |
| 2026-05-03 20:59 | 28.13519 | -80.61316 | 21008 ft | 401 kts | 154° |
| 2026-05-03 20:59 | 28.11182 | -80.59575 | 21582 ft | 404 kts | 154° |
| 2026-05-03 20:59 | 28.08829 | -80.57806 | 22138 ft | 407 kts | 154° |
| 2026-05-03 21:00 | 28.06469 | -80.56016 | 22686 ft | 410 kts | 154° |
| 2026-05-03 21:00 | 28.04903 | -80.54822 | 23053 ft | 412 kts | 154° |
| 2026-05-03 21:00 | 28.01717 | -80.52385 | 23720 ft | 415 kts | 155° |
| 2026-05-03 21:00 | 27.99314 | -80.50545 | 24135 ft | 418 kts | 155° |
| 2026-05-03 21:01 | 27.96926 | -80.48718 | 24570 ft | 420 kts | 155° |
| 2026-05-03 21:01 | 27.94499 | -80.46864 | 25021 ft | 422 kts | 155° |
| 2026-05-03 21:01 | 27.92097 | -80.44914 | 25450 ft | 431 kts | 149° |
| 2026-05-03 21:01 | 27.89924 | -80.42503 | 25862 ft | 444 kts | 139° |
| 2026-05-03 21:02 | 27.87919 | -80.39823 | 26288 ft | 448 kts | 138° |
| 2026-05-03 21:02 | 27.85937 | -80.37093 | 26680 ft | 452 kts | 137° |
| 2026-05-03 21:02 | 27.83945 | -80.34332 | 27065 ft | 454 kts | 137° |
| 2026-05-03 21:02 | 27.81936 | -80.31561 | 27463 ft | 457 kts | 137° |
| 2026-05-03 21:03 | 27.79906 | -80.28782 | 27864 ft | 459 kts | 138° |
| 2026-05-03 21:03 | 27.77862 | -80.26005 | 28251 ft | 461 kts | 138° |
| 2026-05-03 21:03 | 27.75801 | -80.23219 | 28614 ft | 463 kts | 138° |
| 2026-05-03 21:03 | 27.73725 | -80.20422 | 28973 ft | 466 kts | 139° |
| 2026-05-03 21:04 | 27.71638 | -80.17616 | 29305 ft | 468 kts | 139° |
| 2026-05-03 21:04 | 27.69537 | -80.14794 | 29608 ft | 470 kts | 139° |
| 2026-05-03 21:04 | 27.67428 | -80.11962 | 29946 ft | 473 kts | 139° |
| 2026-05-03 21:04 | 27.65307 | -80.09115 | 30244 ft | 475 kts | 139° |
| 2026-05-03 21:05 | 27.63174 | -80.06255 | 30528 ft | 478 kts | 139° |
| 2026-05-03 21:05 | 27.61027 | -80.03377 | 30785 ft | 480 kts | 139° |
| 2026-05-03 21:05 | 27.58870 | -80.00487 | 31037 ft | 483 kts | 139° |
| 2026-05-03 21:05 | 27.56702 | -79.97584 | 31289 ft | 485 kts | 139° |
| 2026-05-03 21:06 | 27.54523 | -79.94667 | 31525 ft | 488 kts | 139° |
| 2026-05-03 21:06 | 27.52329 | -79.91733 | 31787 ft | 490 kts | 139° |
| 2026-05-03 21:06 | 27.50139 | -79.88805 | 32127 ft | 489 kts | 139° |
| 2026-05-03 21:06 | 27.47946 | -79.85872 | 32498 ft | 488 kts | 140° |
| 2026-05-03 21:07 | 27.45759 | -79.82949 | 32831 ft | 488 kts | 140° |
| 2026-05-03 21:07 | 27.43598 | -79.80067 | 33128 ft | 488 kts | 140° |
| 2026-05-03 21:07 | 27.41411 | -79.77152 | 33436 ft | 487 kts | 140° |
| 2026-05-03 21:07 | 27.39224 | -79.74238 | 33862 ft | 486 kts | 140° |
| 2026-05-03 21:08 | 27.37045 | -79.71336 | 34201 ft | 486 kts | 140° |
| 2026-05-03 21:08 | 27.34861 | -79.68432 | 34469 ft | 486 kts | 140° |
| 2026-05-03 21:08 | 27.32682 | -79.65537 | 34742 ft | 485 kts | 140° |
| 2026-05-03 21:08 | 27.30500 | -79.62639 | 35035 ft | 484 kts | 140° |
| 2026-05-03 21:09 | 27.28325 | -79.59751 | 35322 ft | 483 kts | 140° |
| 2026-05-03 21:09 | 27.26154 | -79.56870 | 35584 ft | 483 kts | 141° |
| 2026-05-03 21:09 | 27.23981 | -79.53991 | 35847 ft | 483 kts | 141° |
| 2026-05-03 21:09 | 27.21811 | -79.51116 | 36116 ft | 482 kts | 141° |
| 2026-05-03 21:10 | 27.19645 | -79.48248 | 36395 ft | 481 kts | 141° |
| 2026-05-03 21:10 | 27.17481 | -79.45386 | 36638 ft | 481 kts | 141° |
| 2026-05-03 21:10 | 27.15316 | -79.42523 | 36868 ft | 480 kts | 141° |
| 2026-05-03 21:10 | 27.13160 | -79.39672 | 37046 ft | 478 kts | 141° |
| 2026-05-03 21:11 | 27.08845 | -79.33978 | 37031 ft | 478 kts | 141° |
| 2026-05-03 21:11 | 27.04539 | -79.28300 | 37015 ft | 477 kts | 140° |
| 2026-05-03 21:12 | 27.00243 | -79.22643 | 37030 ft | 476 kts | 139° |
| 2026-05-03 21:12 | 26.95824 | -79.17112 | 37005 ft | 475 kts | 143° |
| 2026-05-03 21:13 | 26.91255 | -79.11791 | 37012 ft | 473 kts | 143° |
| 2026-05-03 21:13 | 26.86700 | -79.06486 | 37018 ft | 472 kts | 143° |
| 2026-05-03 21:14 | 26.82180 | -79.01171 | 37017 ft | 471 kts | 143° |
| 2026-05-03 21:14 | 26.77666 | -78.95847 | 37026 ft | 471 kts | 142° |
| 2026-05-03 21:15 | 26.73149 | -78.90527 | 36999 ft | 472 kts | 142° |
| 2026-05-03 21:15 | 26.68627 | -78.85207 | 37020 ft | 472 kts | 142° |
| 2026-05-03 21:16 | 26.64122 | -78.79914 | 37021 ft | 474 kts | 142° |
| 2026-05-03 21:16 | 26.59565 | -78.74567 | 37043 ft | 477 kts | 142° |
| 2026-05-03 21:17 | 26.55792 | -78.69970 | 37014 ft | 485 kts | 135° |
| 2026-05-03 21:17 | 26.53371 | -78.65713 | 37031 ft | 496 kts | 125° |
| 2026-05-03 21:17 | 26.51764 | -78.62298 | 37035 ft | 498 kts | 124° |
| 2026-05-03 21:18 | 26.48603 | -78.55395 | 37026 ft | 499 kts | 124° |
| 2026-05-03 21:18 | 26.45403 | -78.48507 | 37021 ft | 500 kts | 124° |
| 2026-05-03 21:19 | 26.42159 | -78.41653 | 37018 ft | 500 kts | 124° |
| 2026-05-03 21:19 | 26.38896 | -78.34807 | 36972 ft | 499 kts | 124° |
| 2026-05-03 21:20 | 26.35635 | -78.27975 | 37010 ft | 499 kts | 124° |
| 2026-05-03 21:20 | 26.32396 | -78.21193 | 37016 ft | 498 kts | 124° |
| 2026-05-03 21:21 | 26.29138 | -78.14379 | 37020 ft | 498 kts | 124° |
| 2026-05-03 21:21 | 26.25855 | -78.07524 | 37020 ft | 498 kts | 124° |
| 2026-05-03 21:22 | 26.22590 | -78.00718 | 37019 ft | 498 kts | 124° |
| 2026-05-03 21:22 | 26.19341 | -77.93954 | 37012 ft | 498 kts | 124° |
| 2026-05-03 21:23 | 26.16072 | -77.87159 | 37019 ft | 498 kts | 124° |
| 2026-05-03 21:23 | 26.12798 | -77.80365 | 37019 ft | 498 kts | 124° |
| 2026-05-03 21:24 | 26.09523 | -77.73578 | 37020 ft | 498 kts | 124° |
| 2026-05-03 21:24 | 26.06241 | -77.66789 | 37018 ft | 498 kts | 124° |
| 2026-05-03 21:25 | 26.02959 | -77.60006 | 37021 ft | 498 kts | 124° |
| 2026-05-03 21:25 | 25.99675 | -77.53229 | 37016 ft | 498 kts | 124° |
| 2026-05-03 21:26 | 25.96339 | -77.46486 | 37019 ft | 497 kts | 126° |
| 2026-05-03 21:26 | 25.92882 | -77.39841 | 37022 ft | 497 kts | 126° |
| 2026-05-03 21:27 | 25.89408 | -77.33204 | 37022 ft | 497 kts | 126° |
| 2026-05-03 21:27 | 25.85944 | -77.26548 | 37022 ft | 498 kts | 126° |
| 2026-05-03 21:28 | 25.82484 | -77.19882 | 37019 ft | 498 kts | 126° |
| 2026-05-03 21:28 | 25.79019 | -77.13213 | 37023 ft | 499 kts | 126° |
| 2026-05-03 21:29 | 25.75550 | -77.06549 | 37022 ft | 499 kts | 126° |
| 2026-05-03 21:29 | 25.72071 | -76.99879 | 37022 ft | 499 kts | 126° |
| 2026-05-03 21:30 | 25.68590 | -76.93211 | 37024 ft | 500 kts | 126° |
| 2026-05-03 21:30 | 25.65104 | -76.86546 | 36990 ft | 500 kts | 126° |
| 2026-05-03 21:31 | 25.61642 | -76.79934 | 37017 ft | 499 kts | 126° |
| 2026-05-03 21:31 | 25.58134 | -76.73245 | 37022 ft | 499 kts | 126° |
| 2026-05-03 21:32 | 25.54664 | -76.66637 | 37028 ft | 499 kts | 126° |
| 2026-05-03 21:32 | 25.51166 | -76.59990 | 37025 ft | 500 kts | 126° |
| 2026-05-03 21:33 | 25.47661 | -76.53342 | 37025 ft | 500 kts | 126° |
| 2026-05-03 21:33 | 25.44745 | -76.47817 | 37022 ft | 500 kts | 126° |
| 2026-05-03 21:34 | 25.41238 | -76.41179 | 37028 ft | 500 kts | 126° |
| 2026-05-03 21:34 | 25.37732 | -76.34551 | 37026 ft | 499 kts | 126° |
| 2026-05-03 21:35 | 25.34219 | -76.27918 | 37026 ft | 499 kts | 126° |
| 2026-05-03 21:35 | 25.30708 | -76.21300 | 37025 ft | 499 kts | 126° |
| 2026-05-03 21:36 | 25.27194 | -76.14685 | 37024 ft | 498 kts | 126° |
| 2026-05-03 21:36 | 25.23685 | -76.08089 | 37022 ft | 498 kts | 126° |
| 2026-05-03 21:37 | 25.20175 | -76.01501 | 37024 ft | 497 kts | 126° |
| 2026-05-03 21:37 | 25.16667 | -75.94927 | 37024 ft | 497 kts | 126° |
| 2026-05-03 21:38 | 25.13159 | -75.88360 | 37023 ft | 496 kts | 126° |
| 2026-05-03 21:38 | 25.09648 | -75.81797 | 37025 ft | 496 kts | 126° |
| 2026-05-03 21:39 | 25.06138 | -75.75246 | 37025 ft | 496 kts | 126° |
| 2026-05-03 21:39 | 25.02628 | -75.68703 | 37020 ft | 495 kts | 126° |
| 2026-05-03 21:40 | 24.99119 | -75.62172 | 37020 ft | 495 kts | 126° |
| 2026-05-03 21:40 | 24.95632 | -75.55690 | 37022 ft | 495 kts | 126° |
| 2026-05-03 21:41 | 24.92122 | -75.49174 | 37000 ft | 494 kts | 126° |
| 2026-05-03 21:41 | 24.88614 | -75.42668 | 37017 ft | 494 kts | 126° |
| 2026-05-03 21:42 | 24.85107 | -75.36176 | 37023 ft | 493 kts | 125° |
| 2026-05-03 21:42 | 24.81591 | -75.29689 | 37017 ft | 493 kts | 125° |
| 2026-05-03 21:43 | 24.78073 | -75.23213 | 37023 ft | 493 kts | 125° |
| 2026-05-03 21:43 | 24.74553 | -75.16737 | 37021 ft | 493 kts | 125° |
| 2026-05-03 21:44 | 24.71034 | -75.10269 | 37022 ft | 493 kts | 125° |
| 2026-05-03 21:44 | 24.67507 | -75.03796 | 37014 ft | 493 kts | 125° |
| 2026-05-03 21:45 | 24.63978 | -74.97327 | 37023 ft | 493 kts | 125° |
| 2026-05-03 21:45 | 24.60444 | -74.90856 | 37021 ft | 493 kts | 125° |
| 2026-05-03 21:46 | 24.56932 | -74.84435 | 37021 ft | 494 kts | 125° |
| 2026-05-03 21:46 | 24.53395 | -74.77975 | 37012 ft | 494 kts | 125° |
| 2026-05-03 21:47 | 24.49858 | -74.71510 | 37022 ft | 494 kts | 125° |
| 2026-05-03 21:47 | 24.46322 | -74.65041 | 37025 ft | 494 kts | 125° |
| 2026-05-03 21:48 | 24.42779 | -74.58571 | 37028 ft | 494 kts | 126° |
| 2026-05-03 21:48 | 24.38600 | -74.52696 | 37044 ft | 485 kts | 138° |
| 2026-05-03 21:49 | 24.33963 | -74.47314 | 37032 ft | 485 kts | 139° |
| 2026-05-03 21:49 | 24.29327 | -74.41922 | 37030 ft | 486 kts | 138° |
| 2026-05-03 21:50 | 24.24719 | -74.36494 | 37032 ft | 487 kts | 138° |
| 2026-05-03 21:50 | 24.20118 | -74.31050 | 37029 ft | 487 kts | 138° |
| 2026-05-03 21:51 | 24.15514 | -74.25609 | 37018 ft | 487 kts | 138° |
| 2026-05-03 21:51 | 24.10911 | -74.20178 | 37030 ft | 487 kts | 138° |
| 2026-05-03 21:52 | 24.06298 | -74.14743 | 37029 ft | 487 kts | 138° |
| 2026-05-03 21:52 | 24.01682 | -74.09312 | 37028 ft | 488 kts | 138° |
| 2026-05-03 21:53 | 23.97060 | -74.03878 | 37028 ft | 488 kts | 138° |
| 2026-05-03 21:53 | 23.92435 | -73.98446 | 37022 ft | 488 kts | 137° |
| 2026-05-03 21:54 | 23.87808 | -73.93015 | 37031 ft | 488 kts | 137° |
| 2026-05-03 21:54 | 23.83187 | -73.87575 | 37029 ft | 488 kts | 137° |
| 2026-05-03 21:55 | 23.78568 | -73.82137 | 37030 ft | 488 kts | 137° |
| 2026-05-03 21:55 | 23.73946 | -73.76703 | 37029 ft | 488 kts | 137° |
| 2026-05-03 21:56 | 23.69322 | -73.71273 | 37029 ft | 488 kts | 137° |
| 2026-05-03 21:56 | 23.64733 | -73.65892 | 37030 ft | 487 kts | 137° |
| 2026-05-03 21:57 | 23.60119 | -73.60485 | 37030 ft | 487 kts | 137° |
| 2026-05-03 21:57 | 23.55497 | -73.55087 | 37029 ft | 486 kts | 137° |
| 2026-05-03 21:58 | 23.50851 | -73.49732 | 37030 ft | 486 kts | 138° |
| 2026-05-03 21:58 | 23.46196 | -73.44383 | 37021 ft | 486 kts | 137° |
| 2026-05-03 21:59 | 23.41555 | -73.39047 | 37030 ft | 485 kts | 137° |
| 2026-05-03 21:59 | 23.36915 | -73.33712 | 37029 ft | 485 kts | 137° |
| 2026-05-03 22:00 | 23.32275 | -73.28382 | 37031 ft | 485 kts | 137° |
| 2026-05-03 22:00 | 23.27632 | -73.23055 | 37035 ft | 485 kts | 137° |
| 2026-05-03 22:01 | 23.22988 | -73.17733 | 37034 ft | 485 kts | 137° |
| 2026-05-03 22:01 | 23.18344 | -73.12415 | 37030 ft | 485 kts | 137° |
| 2026-05-03 22:02 | 23.13693 | -73.07096 | 37014 ft | 485 kts | 137° |
| 2026-05-03 22:02 | 23.09041 | -73.01781 | 37028 ft | 485 kts | 137° |
| 2026-05-03 22:03 | 23.04392 | -72.96475 | 37031 ft | 485 kts | 137° |
| 2026-05-03 22:03 | 22.99739 | -72.91169 | 37031 ft | 485 kts | 137° |
| 2026-05-03 22:04 | 22.95289 | -72.85715 | 37045 ft | 487 kts | 132° |
| 2026-05-03 22:04 | 22.91060 | -72.79957 | 37031 ft | 488 kts | 131° |
| 2026-05-03 22:05 | 22.86861 | -72.74190 | 37033 ft | 488 kts | 131° |
| 2026-05-03 22:05 | 22.82624 | -72.68441 | 37045 ft | 488 kts | 132° |
| 2026-05-03 22:06 | 22.78368 | -72.62712 | 37031 ft | 488 kts | 132° |
| 2026-05-03 22:06 | 22.74107 | -72.56994 | 37028 ft | 488 kts | 132° |
| 2026-05-03 22:07 | 22.69846 | -72.51279 | 37037 ft | 488 kts | 132° |
| 2026-05-03 22:07 | 22.65579 | -72.45560 | 37030 ft | 488 kts | 132° |
| 2026-05-03 22:08 | 22.61309 | -72.39843 | 37032 ft | 488 kts | 132° |
| 2026-05-03 22:08 | 22.57040 | -72.34133 | 37044 ft | 488 kts | 132° |
| 2026-05-03 22:09 | 22.52769 | -72.28426 | 37030 ft | 488 kts | 132° |
| 2026-05-03 22:10 | 22.46362 | -72.19878 | 37027 ft | 488 kts | 132° |
| 2026-05-03 22:10 | 22.42087 | -72.14183 | 37037 ft | 488 kts | 132° |
| 2026-05-03 22:11 | 22.37814 | -72.08496 | 37027 ft | 487 kts | 131° |
| 2026-05-03 22:11 | 22.33542 | -72.02816 | 37030 ft | 487 kts | 131° |
| 2026-05-03 22:12 | 22.29268 | -71.97140 | 37033 ft | 487 kts | 131° |
| 2026-05-03 22:12 | 22.25020 | -71.91504 | 37032 ft | 487 kts | 131° |
| 2026-05-03 22:13 | 22.20748 | -71.85843 | 37033 ft | 486 kts | 131° |
| 2026-05-03 22:13 | 22.16474 | -71.80185 | 37028 ft | 486 kts | 131° |
| 2026-05-03 22:14 | 22.12200 | -71.74533 | 37030 ft | 486 kts | 131° |
| 2026-05-03 22:14 | 22.07930 | -71.68891 | 37029 ft | 486 kts | 131° |
| 2026-05-03 22:15 | 22.03652 | -71.63247 | 37013 ft | 485 kts | 131° |
| 2026-05-03 22:15 | 21.99381 | -71.57616 | 37024 ft | 485 kts | 131° |
| 2026-05-03 22:16 | 21.95117 | -71.52001 | 37031 ft | 484 kts | 131° |
| 2026-05-03 22:16 | 21.90854 | -71.46393 | 37026 ft | 483 kts | 131° |
| 2026-05-03 22:17 | 21.86601 | -71.40804 | 37025 ft | 482 kts | 131° |
| 2026-05-03 22:17 | 21.82356 | -71.35231 | 37025 ft | 482 kts | 131° |
| 2026-05-03 22:18 | 21.78129 | -71.29687 | 37025 ft | 481 kts | 131° |
| 2026-05-03 22:18 | 21.73884 | -71.24126 | 37024 ft | 481 kts | 131° |
| 2026-05-03 22:19 | 21.69640 | -71.18570 | 37020 ft | 480 kts | 131° |
| 2026-05-03 22:19 | 21.65395 | -71.13019 | 37025 ft | 480 kts | 131° |
| 2026-05-03 22:20 | 21.61156 | -71.07482 | 37023 ft | 479 kts | 131° |
| 2026-05-03 22:20 | 21.57475 | -71.03047 | 37011 ft | 476 kts | 140° |
| 2026-05-03 22:21 | 21.52132 | -70.98945 | 37030 ft | 471 kts | 150° |
| 2026-05-03 22:21 | 21.46603 | -70.95162 | 37023 ft | 471 kts | 150° |
| 2026-05-03 22:22 | 21.41082 | -70.91351 | 37022 ft | 472 kts | 150° |
| 2026-05-03 22:22 | 21.35580 | -70.87509 | 37022 ft | 472 kts | 150° |
| 2026-05-03 22:23 | 21.30085 | -70.83657 | 37013 ft | 472 kts | 149° |
| 2026-05-03 22:23 | 21.24592 | -70.79807 | 37015 ft | 472 kts | 149° |
| 2026-05-03 22:24 | 21.19097 | -70.75962 | 37016 ft | 472 kts | 149° |
| 2026-05-03 22:24 | 21.13633 | -70.72143 | 37017 ft | 472 kts | 149° |
| 2026-05-03 22:25 | 21.08132 | -70.68302 | 37017 ft | 472 kts | 149° |
| 2026-05-03 22:25 | 21.02632 | -70.64465 | 37013 ft | 472 kts | 149° |
| 2026-05-03 22:26 | 20.97132 | -70.60632 | 37007 ft | 472 kts | 149° |
| 2026-05-03 22:26 | 20.91634 | -70.56803 | 37015 ft | 471 kts | 149° |
| 2026-05-03 22:27 | 20.86136 | -70.52978 | 37015 ft | 471 kts | 149° |